createdAt,value
2024-01-05T00:00:03.348Z,83.27
2024-01-05T00:02:34.400Z,83.45
2024-01-05T00:05:01.334Z,83.96
2024-01-05T00:07:28.432Z,83.56
2024-01-05T00:09:55.391Z,84.04
2024-01-05T00:12:22.515Z,84.22
2024-01-05T00:14:49.605Z,84.14
2024-01-05T00:17:17.075Z,84.08
2024-01-05T00:19:44.052Z,87.11
2024-01-05T00:22:11.322Z,89.46
2024-01-05T00:24:38.636Z,89.83
2024-01-05T00:27:05.926Z,92.28
2024-01-05T00:29:32.764Z,91.55
2024-01-05T00:31:59.677Z,91.29
2024-01-05T00:34:26.679Z,91.55
2024-01-05T00:36:53.868Z,92.35
2024-01-05T00:39:20.831Z,90.99
2024-01-05T00:41:49.214Z,90.37
2024-01-05T00:44:16.511Z,89.64
2024-01-05T00:46:44.024Z,88.87
2024-01-05T00:49:11.340Z,88.78
2024-01-05T00:51:38.427Z,88.27
2024-01-05T00:54:05.509Z,87.99
2024-01-05T00:56:32.595Z,87.69
2024-01-05T00:58:59.598Z,87.68
2024-01-05T01:01:26.569Z,87.53
2024-01-05T01:03:53.665Z,87.19
2024-01-05T01:06:20.867Z,86.81
2024-01-05T01:08:47.986Z,86.88
2024-01-05T01:11:16.309Z,87.29
2024-01-05T01:13:44.140Z,87.10
2024-01-05T01:16:12.728Z,87.46
2024-01-05T01:18:40.602Z,87.58
2024-01-05T01:21:08.385Z,87.67
2024-01-05T01:23:35.407Z,87.98
2024-01-05T01:26:02.403Z,87.94
2024-01-05T01:28:30.314Z,87.74
2024-01-05T01:30:58.183Z,87.41
2024-01-05T01:33:25.622Z,87.83
2024-01-05T01:35:52.886Z,87.56
2024-01-05T01:38:20.202Z,87.36
2024-01-05T01:40:48.502Z,87.31
2024-01-05T01:43:33.484Z,87.22
2024-01-05T01:46:02.085Z,87.19
2024-01-05T01:48:31.238Z,87.05
2024-01-05T01:51:00.062Z,86.88
2024-01-05T01:53:28.498Z,86.31
2024-01-05T01:55:56.213Z,85.64
2024-01-05T01:58:24.236Z,85.20
2024-01-05T02:00:52.498Z,84.60
2024-01-05T02:03:20.439Z,84.91
2024-01-05T02:05:49.518Z,85.09
2024-01-05T02:08:17.292Z,85.90
2024-01-05T02:10:44.368Z,86.06
2024-01-05T02:13:11.715Z,86.19
2024-01-05T02:15:38.807Z,86.60
2024-01-05T02:18:13.185Z,86.69
2024-01-05T02:20:40.311Z,87.57
2024-01-05T02:23:14.579Z,87.59
2024-01-05T02:25:41.828Z,87.59
2024-01-05T02:28:08.728Z,87.70
2024-01-05T02:30:35.697Z,87.73
2024-01-05T02:35:29.850Z,86.04
2024-01-05T02:37:56.851Z,86.78
2024-01-05T02:40:23.785Z,87.25
2024-01-05T02:42:50.738Z,87.92
2024-01-05T02:45:22.088Z,87.48
2024-01-05T02:47:52.837Z,89.33
2024-01-05T02:50:21.654Z,89.69
2024-01-05T02:52:48.649Z,89.82
2024-01-05T02:55:15.568Z,90.54
2024-01-05T02:57:42.603Z,90.68
2024-01-05T03:00:10.206Z,91.24
2024-01-05T03:02:37.255Z,92.84
2024-01-05T03:05:06.374Z,92.98
2024-01-05T03:07:33.503Z,93.09
2024-01-05T03:10:00.507Z,92.65
2024-01-05T03:12:27.676Z,92.51
2024-01-05T03:14:54.828Z,92.16
2024-01-05T03:17:22.236Z,91.65
2024-01-05T03:19:49.392Z,90.87
2024-01-05T03:22:16.531Z,90.38
2024-01-05T03:24:45.179Z,90.28
2024-01-05T03:27:16.361Z,90.13
2024-01-05T03:29:43.498Z,90.17
2024-01-05T03:32:10.708Z,91.11
2024-01-05T03:34:38.817Z,90.89
2024-01-05T03:37:05.867Z,91.58
2024-01-05T03:39:33.303Z,90.59
2024-01-05T03:42:00.834Z,90.72
2024-01-05T03:44:28.169Z,90.30
2024-01-05T03:46:55.079Z,89.75
2024-01-05T03:49:22.170Z,89.10
2024-01-05T03:51:49.786Z,88.44
2024-01-05T03:54:16.719Z,88.09
2024-01-05T03:56:47.596Z,87.37
2024-01-05T03:59:15.592Z,87.61
2024-01-05T04:01:50.989Z,86.83
2024-01-05T04:04:18.137Z,86.92
2024-01-05T04:06:46.162Z,86.94
2024-01-05T04:09:13.747Z,87.55
2024-01-05T04:11:41.077Z,88.36
2024-01-05T04:14:08.842Z,88.12
2024-01-05T04:16:36.244Z,88.24
2024-01-05T04:19:03.986Z,88.13
2024-01-05T04:21:32.266Z,88.58
2024-01-05T04:23:59.759Z,89.25
2024-01-05T04:26:27.409Z,89.56
2024-01-05T04:28:54.452Z,89.91
2024-01-05T04:31:22.020Z,90.30
2024-01-05T04:33:49.332Z,90.78
2024-01-05T04:36:20.352Z,90.85
2024-01-05T04:38:47.632Z,90.84
2024-01-05T04:41:16.818Z,90.92
2024-01-05T04:43:47.096Z,90.88
2024-01-05T04:46:14.124Z,90.96
2024-01-05T04:48:41.260Z,90.85
2024-01-05T04:51:08.446Z,91.12
2024-01-05T04:53:37.066Z,91.04
2024-01-05T04:56:04.711Z,90.87
2024-01-05T04:58:32.528Z,91.03
2024-01-05T05:00:59.932Z,90.44
2024-01-05T05:03:28.304Z,90.70
2024-01-05T05:05:55.514Z,90.25
2024-01-05T05:08:23.141Z,89.73
2024-01-05T05:10:50.206Z,90.05
2024-01-05T05:13:17.211Z,89.62
2024-01-05T05:15:44.526Z,89.50
2024-01-05T05:18:11.741Z,88.18
2024-01-05T05:20:38.966Z,88.08
2024-01-05T05:23:05.913Z,89.05
2024-01-05T05:25:33.397Z,90.65
2024-01-05T05:28:00.590Z,91.90
2024-01-05T05:30:27.578Z,93.29
2024-01-05T05:32:55.029Z,93.02
2024-01-05T05:35:22.091Z,93.24
2024-01-05T05:37:49.066Z,93.52
2024-01-05T05:40:16.569Z,92.76
2024-01-05T05:42:45.086Z,92.78
2024-01-05T05:45:12.376Z,93.08
2024-01-05T05:47:40.024Z,91.62
2024-01-05T05:50:08.066Z,91.31
2024-01-05T05:52:36.523Z,90.96
2024-01-05T05:55:04.180Z,90.76
2024-01-05T05:57:34.871Z,89.85
2024-01-05T06:00:01.990Z,89.95
2024-01-05T06:02:28.984Z,89.77
2024-01-05T06:04:56.359Z,89.76
2024-01-05T06:07:26.907Z,90.16
2024-01-05T06:09:54.362Z,89.40
2024-01-05T06:12:22.211Z,89.18
2024-01-05T06:14:49.760Z,89.68
2024-01-05T06:17:19.782Z,89.42
2024-01-05T06:19:47.159Z,88.58
2024-01-05T06:22:18.097Z,88.79
2024-01-05T06:24:48.137Z,88.32
2024-01-05T06:27:21.913Z,88.46
2024-01-05T06:29:52.833Z,88.95
2024-01-05T06:32:19.963Z,88.60
2024-01-05T06:34:47.172Z,88.90
2024-01-05T06:37:14.331Z,89.79
2024-01-05T06:39:41.593Z,90.13
2024-01-05T06:42:09.355Z,90.71
2024-01-05T06:44:38.613Z,88.80
2024-01-05T06:47:06.561Z,88.11
2024-01-05T06:49:37.768Z,88.49
2024-01-05T06:52:05.686Z,88.94
2024-01-05T06:54:33.361Z,88.71
2024-01-05T06:57:01.004Z,88.67
2024-01-05T06:59:31.645Z,88.82
2024-01-05T07:01:59.219Z,88.21
2024-01-05T07:04:26.758Z,88.69
2024-01-05T07:06:53.999Z,88.98
2024-01-05T07:09:21.519Z,88.39
2024-01-05T07:11:49.697Z,88.31
2024-01-05T07:14:20.240Z,88.14
2024-01-05T07:16:50.648Z,87.62
2024-01-05T07:19:19.592Z,88.05
2024-01-05T07:21:47.698Z,88.07
2024-01-05T07:24:16.837Z,88.10
2024-01-05T07:26:45.070Z,87.92
2024-01-05T07:29:13.841Z,87.92
2024-01-05T07:31:41.199Z,87.58
2024-01-05T07:34:09.467Z,87.68
2024-01-05T07:36:37.562Z,88.19
2024-01-05T07:39:06.753Z,88.69
2024-01-05T07:41:34.514Z,89.19
2024-01-05T07:44:02.818Z,88.32
2024-01-05T07:46:31.644Z,87.74
2024-01-05T07:48:59.442Z,87.11
2024-01-05T07:51:27.253Z,87.09
2024-01-05T07:53:54.750Z,87.22
2024-01-05T07:56:21.965Z,87.38
2024-01-05T07:58:49.729Z,87.69
2024-01-05T08:01:22.978Z,87.25
2024-01-05T08:03:51.316Z,87.33
2024-01-05T08:06:20.691Z,87.10
2024-01-05T08:08:49.994Z,86.81
2024-01-05T08:11:18.387Z,87.13
2024-01-05T08:13:48.199Z,86.96
2024-01-05T08:16:16.333Z,86.49
2024-01-05T08:18:44.789Z,86.38
2024-01-05T08:21:13.111Z,86.17
2024-01-05T08:23:40.382Z,85.70
2024-01-05T08:26:09.046Z,85.55
2024-01-05T08:28:36.976Z,85.81
2024-01-05T08:31:04.671Z,85.40
2024-01-05T08:33:32.520Z,85.58
2024-01-05T08:36:01.061Z,85.46
2024-01-05T08:38:28.872Z,85.83
2024-01-05T08:40:56.079Z,85.63
2024-01-05T08:43:24.324Z,85.51
2024-01-05T08:45:51.881Z,85.59
2024-01-05T08:48:19.219Z,85.42
2024-01-05T08:50:46.314Z,85.12
2024-01-05T08:53:13.499Z,84.82
2024-01-05T08:55:40.459Z,85.41
2024-01-05T08:58:07.693Z,85.84
2024-01-05T09:00:34.976Z,85.62
2024-01-05T09:03:03.440Z,85.14
2024-01-05T09:05:30.878Z,84.43
2024-01-05T09:07:57.977Z,84.29
2024-01-05T09:10:25.123Z,84.35
2024-01-05T09:12:52.164Z,84.14
2024-01-05T09:15:19.677Z,84.21
2024-01-05T09:17:46.791Z,84.20
2024-01-05T09:20:14.039Z,84.27
2024-01-05T09:22:41.364Z,84.50
2024-01-05T09:25:09.674Z,84.70
2024-01-05T09:27:37.298Z,84.54
2024-01-05T09:30:05.155Z,85.04
2024-01-05T09:32:32.512Z,84.72
2024-01-05T09:34:59.554Z,85.09
2024-01-05T09:37:26.591Z,85.25
2024-01-05T09:39:53.817Z,84.68
2024-01-05T09:42:20.981Z,84.70
2024-01-05T09:44:49.783Z,84.76
2024-01-05T09:47:19.904Z,84.50
2024-01-05T09:49:51.497Z,84.38
2024-01-05T09:52:21.590Z,84.30
2024-01-05T09:54:48.685Z,84.38
2024-01-05T09:57:19.645Z,83.65
2024-01-05T09:59:48.582Z,84.59
2024-01-05T10:02:41.614Z,85.15
2024-01-05T10:05:08.748Z,84.83
2024-01-05T10:07:45.281Z,86.07
2024-01-05T10:10:14.272Z,85.98
2024-01-05T10:12:42.448Z,85.50
2024-01-05T10:15:10.095Z,85.79
2024-01-05T10:17:37.441Z,85.65
2024-01-05T10:20:18.629Z,84.56
2024-01-05T10:22:48.075Z,84.66
2024-01-05T10:25:16.794Z,84.22
2024-01-05T10:27:44.988Z,84.99
2024-01-05T10:30:26.303Z,85.37
2024-01-05T10:33:10.289Z,84.78
2024-01-05T10:35:37.745Z,84.82
2024-01-05T10:38:05.581Z,85.04
2024-01-05T10:40:33.513Z,84.26
2024-01-05T10:43:16.379Z,85.20
2024-01-05T10:45:44.382Z,84.79
2024-01-05T10:48:15.319Z,84.97
2024-01-05T10:50:44.853Z,85.18
2024-01-05T10:53:13.900Z,84.63
2024-01-05T10:55:41.677Z,84.76
2024-01-05T10:58:09.333Z,84.06
2024-01-05T11:00:37.914Z,84.09
2024-01-05T11:03:15.854Z,83.76
2024-01-05T11:05:44.400Z,83.87
2024-01-05T11:08:26.292Z,84.31
2024-01-05T11:11:11.935Z,84.21
2024-01-05T11:14:03.937Z,84.67
2024-01-05T11:16:53.654Z,84.41
2024-01-05T11:19:26.426Z,83.82
2024-01-05T11:22:00.855Z,83.66
2024-01-05T11:24:29.805Z,83.52
2024-01-05T11:26:57.052Z,83.46
2024-01-05T11:29:52.921Z,83.75
2024-01-05T11:32:36.900Z,83.48
2024-01-05T11:35:25.871Z,83.21
2024-01-05T11:37:53.266Z,83.88
2024-01-05T11:40:30.261Z,82.96
2024-01-05T11:43:00.498Z,83.12
2024-01-05T11:45:45.828Z,82.81
2024-01-05T11:48:34.983Z,83.06
2024-01-05T11:51:09.525Z,82.82
2024-01-05T11:53:37.488Z,80.50
2024-01-05T11:56:09.589Z,78.39
2024-01-05T11:58:38.156Z,76.93
2024-01-05T12:01:08.919Z,76.44
2024-01-05T12:03:36.094Z,75.35
2024-01-05T12:06:05.450Z,74.61
2024-01-05T12:08:33.625Z,74.68
2024-01-05T12:11:04.704Z,74.39
2024-01-05T12:13:34.455Z,74.96
2024-01-05T12:16:06.761Z,75.87
2024-01-05T12:18:44.349Z,75.85
2024-01-05T12:21:14.555Z,75.01
2024-01-05T12:23:51.801Z,75.72
2024-01-05T12:26:19.100Z,75.17
2024-01-05T12:28:48.075Z,75.11
2024-01-05T12:31:15.699Z,74.57
2024-01-05T12:33:44.137Z,75.23
2024-01-05T12:36:14.183Z,75.30
2024-01-05T12:38:42.106Z,74.93
2024-01-05T12:41:19.178Z,74.74
2024-01-05T12:43:51.748Z,73.60
2024-01-05T12:46:20.960Z,73.69
2024-01-05T12:48:48.213Z,73.78
2024-01-05T12:51:22.073Z,73.81
2024-01-05T12:54:04.986Z,73.61
2024-01-05T12:56:32.936Z,72.76
2024-01-05T12:59:00.234Z,72.42
2024-01-05T13:01:28.305Z,71.90
2024-01-05T13:03:57.584Z,71.42
2024-01-05T13:06:32.183Z,71.52
2024-01-05T13:09:00.892Z,72.24
2024-01-05T13:11:28.934Z,70.77
2024-01-05T13:13:57.440Z,69.10
2024-01-05T13:16:24.731Z,68.50
2024-01-05T13:18:52.010Z,68.54
2024-01-05T13:21:19.365Z,67.76
2024-01-05T13:23:48.377Z,67.62
2024-01-05T13:26:16.082Z,68.20
2024-01-05T13:28:43.273Z,68.27
2024-01-05T13:31:12.132Z,67.76
2024-01-05T13:33:42.504Z,66.88
2024-01-05T13:36:10.939Z,65.11
2024-01-05T13:38:42.647Z,65.43
2024-01-05T13:41:12.719Z,64.38
2024-01-05T13:43:41.388Z,65.67
2024-01-05T13:46:11.524Z,64.34
2024-01-05T13:48:40.356Z,63.55
2024-01-05T13:51:08.259Z,62.43
2024-01-05T13:53:36.507Z,63.13
2024-01-05T13:56:06.860Z,62.86
2024-01-05T13:58:38.373Z,62.41
2024-01-05T14:01:06.165Z,61.83
2024-01-05T14:03:35.325Z,62.05
2024-01-05T14:06:06.407Z,62.23
2024-01-05T14:08:34.349Z,62.07
2024-01-05T14:11:04.027Z,63.01
2024-01-05T14:13:35.400Z,63.62
2024-01-05T14:16:03.599Z,63.70
2024-01-05T14:18:32.313Z,64.64
2024-01-05T14:21:00.536Z,63.87
2024-01-05T14:23:28.131Z,64.60
2024-01-05T14:25:56.239Z,64.57
2024-01-05T14:28:23.448Z,63.76
2024-01-05T14:30:50.861Z,63.85
2024-01-05T14:33:18.263Z,64.63
2024-01-05T14:35:46.434Z,64.96
2024-01-05T14:38:13.695Z,65.80
2024-01-05T14:40:40.742Z,65.41
2024-01-05T14:43:07.776Z,65.89
2024-01-05T14:45:34.903Z,66.14
2024-01-05T14:48:02.100Z,66.56
2024-01-05T14:50:29.433Z,66.46
2024-01-05T14:53:03.985Z,66.90
2024-01-05T14:55:35.789Z,67.63
2024-01-05T14:58:05.157Z,68.24
2024-01-05T15:00:32.154Z,68.25
2024-01-05T15:03:00.866Z,68.25
2024-01-05T15:05:27.974Z,68.53
2024-01-05T15:07:55.097Z,69.32
2024-01-05T15:10:23.802Z,69.47
2024-01-05T15:12:54.225Z,69.98
2024-01-05T15:15:21.582Z,70.88
2024-01-05T15:17:48.741Z,70.98
2024-01-05T15:20:17.695Z,71.06
2024-01-05T15:22:45.433Z,71.14
2024-01-05T15:25:16.745Z,71.45
2024-01-05T15:27:44.199Z,71.20
2024-01-05T15:30:13.016Z,71.21
2024-01-05T15:32:40.322Z,71.82
2024-01-05T15:35:10.934Z,72.07
2024-01-05T15:37:37.909Z,72.26
2024-01-05T15:40:05.600Z,72.14
2024-01-05T15:42:32.802Z,71.97
2024-01-05T15:45:00.165Z,72.13
2024-01-05T15:47:28.951Z,72.49
2024-01-05T15:49:56.129Z,72.30
2024-01-05T15:52:23.196Z,72.32
2024-01-05T15:54:50.420Z,72.44
2024-01-05T15:57:17.446Z,72.10
2024-01-05T15:59:44.449Z,72.15
2024-01-05T16:02:11.406Z,72.88
2024-01-05T16:04:38.757Z,73.03
2024-01-05T16:07:05.910Z,73.64
2024-01-05T16:09:33.187Z,74.79
2024-01-05T16:12:00.536Z,74.61
2024-01-05T16:14:27.650Z,74.69
2024-01-05T16:16:57.194Z,74.46
2024-01-05T16:19:25.675Z,74.06
2024-01-05T16:21:52.853Z,73.42
2024-01-05T16:24:20.313Z,72.93
2024-01-05T16:26:48.806Z,72.63
2024-01-05T16:29:16.000Z,72.52
2024-01-05T16:31:43.776Z,73.10
2024-01-05T16:34:11.059Z,72.71
2024-01-05T16:36:38.146Z,72.55
2024-01-05T16:39:07.075Z,72.04
2024-01-05T16:41:34.222Z,72.05
2024-01-05T16:44:01.552Z,72.07
2024-01-05T16:46:31.080Z,71.82
2024-01-05T16:48:58.421Z,72.12
2024-01-05T16:51:28.000Z,72.00
2024-01-05T16:53:56.477Z,72.45
2024-01-05T16:56:28.606Z,72.63
2024-01-05T16:58:57.718Z,73.27
2024-01-05T17:01:25.548Z,72.90
2024-01-05T17:03:56.551Z,73.46
2024-01-05T17:06:23.952Z,72.79
2024-01-05T17:08:51.009Z,73.37
2024-01-05T17:11:17.987Z,73.46
2024-01-05T17:13:45.004Z,73.79
2024-01-05T17:16:12.021Z,74.38
2024-01-05T17:18:40.055Z,74.04
2024-01-05T17:21:07.272Z,74.27
2024-01-05T17:23:34.367Z,74.61
2024-01-05T17:26:03.558Z,74.65
2024-01-05T17:28:30.643Z,74.85
2024-01-05T17:30:58.272Z,74.45
2024-01-05T17:33:26.399Z,73.75
2024-01-05T17:35:58.564Z,73.82
2024-01-05T17:38:26.023Z,73.63
2024-01-05T17:40:53.133Z,73.98
2024-01-05T17:43:20.336Z,73.47
2024-01-05T17:45:47.887Z,73.66
2024-01-05T17:48:15.394Z,72.95
2024-01-05T17:50:42.898Z,74.36
2024-01-05T17:53:11.147Z,74.57
2024-01-05T17:55:38.153Z,75.01
2024-01-05T17:58:05.362Z,74.92
2024-01-05T18:00:32.465Z,75.04
2024-01-05T18:03:00.299Z,75.30
2024-01-05T18:05:27.362Z,75.71
2024-01-05T18:07:57.454Z,75.52
2024-01-05T18:10:24.521Z,75.86
2024-01-05T18:12:51.775Z,75.06
2024-01-05T18:15:18.875Z,75.00
2024-01-05T18:17:45.922Z,75.55
2024-01-05T18:20:13.261Z,75.26
2024-01-05T18:22:40.251Z,75.18
2024-01-05T18:25:07.603Z,74.90
2024-01-05T18:27:34.831Z,74.55
2024-01-05T18:30:03.856Z,75.17
2024-01-05T18:32:31.230Z,75.50
2024-01-05T18:34:59.540Z,76.53
2024-01-05T18:37:26.863Z,75.62
2024-01-05T18:39:54.219Z,75.15
2024-01-05T18:42:21.820Z,74.34
2024-01-05T18:44:48.758Z,73.84
2024-01-05T18:47:16.338Z,74.08
2024-01-05T18:49:43.436Z,74.32
2024-01-05T18:52:10.506Z,74.40
2024-01-05T18:54:37.518Z,74.52
2024-01-05T18:57:04.785Z,74.55
2024-01-05T18:59:31.795Z,74.42
2024-01-05T19:01:59.952Z,75.62
2024-01-05T19:04:27.153Z,75.29
2024-01-05T19:06:54.353Z,75.56
2024-01-05T19:09:21.484Z,75.83
2024-01-05T19:11:48.535Z,76.36
2024-01-05T19:14:15.925Z,76.41
2024-01-05T19:16:44.112Z,76.35
2024-01-05T19:19:12.717Z,76.61
2024-01-05T19:21:49.801Z,76.32
2024-01-05T19:24:22.856Z,75.47
2024-01-05T19:26:50.113Z,75.41
2024-01-05T19:29:17.052Z,74.86
2024-01-05T19:31:44.453Z,74.90
2024-01-05T19:34:13.330Z,75.31
2024-01-05T19:36:45.221Z,75.13
2024-01-05T19:39:13.142Z,74.50
2024-01-05T19:41:44.780Z,74.39
2024-01-05T19:44:12.235Z,76.35
2024-01-05T19:46:39.202Z,76.59
2024-01-05T19:49:06.488Z,75.12
2024-01-05T19:51:33.610Z,74.63
2024-01-05T19:54:00.711Z,73.84
2024-01-05T19:56:27.619Z,73.90
2024-01-05T19:58:54.764Z,73.18
2024-01-05T20:01:21.889Z,73.43
2024-01-05T20:03:49.354Z,74.02
2024-01-05T20:06:16.972Z,74.42
2024-01-05T20:08:44.160Z,76.06
2024-01-05T20:11:14.521Z,76.84
2024-01-05T20:13:42.298Z,75.95
2024-01-05T20:16:10.762Z,76.15
2024-01-05T20:18:38.554Z,75.64
2024-01-05T20:21:14.045Z,76.49
2024-01-05T20:23:41.336Z,78.00
2024-01-05T20:26:10.804Z,79.58
2024-01-05T20:28:37.720Z,80.04
2024-01-05T20:31:05.221Z,80.30
2024-01-05T20:33:32.546Z,80.89
2024-01-05T20:35:59.874Z,81.82
2024-01-05T20:38:27.034Z,83.79
2024-01-05T20:40:53.997Z,84.06
2024-01-05T20:43:21.031Z,84.14
2024-01-05T20:45:48.032Z,83.94
2024-01-05T20:48:15.924Z,84.91
2024-01-05T20:50:43.393Z,84.96
2024-01-05T20:53:12.082Z,84.02
2024-01-05T20:55:39.992Z,83.67
2024-01-05T20:58:06.986Z,83.02
2024-01-05T21:00:34.619Z,83.03
2024-01-05T21:03:01.688Z,82.68
2024-01-05T21:05:30.080Z,82.36
2024-01-05T21:07:57.069Z,82.49
2024-01-05T21:10:24.462Z,81.90
2024-01-05T21:12:52.903Z,81.40
2024-01-05T21:15:20.052Z,81.24
2024-01-05T21:17:46.997Z,81.57
2024-01-05T21:20:14.457Z,81.87
2024-01-05T21:22:42.074Z,81.57
2024-01-05T21:25:10.152Z,81.67
2024-01-05T21:27:37.647Z,81.19
2024-01-05T21:30:06.331Z,80.43
2024-01-05T21:32:34.407Z,80.54
2024-01-05T21:35:02.023Z,79.80
2024-01-05T21:37:29.278Z,79.24
2024-01-05T21:39:56.219Z,79.45
2024-01-05T21:42:23.339Z,79.35
2024-01-05T21:44:51.629Z,78.73
2024-01-05T21:47:20.804Z,77.94
2024-01-05T21:49:48.087Z,76.82
2024-01-05T21:52:15.226Z,76.00
2024-01-05T21:54:42.270Z,76.08
2024-01-05T21:57:09.600Z,75.36
2024-01-05T21:59:37.763Z,75.43
2024-01-05T22:02:05.813Z,75.18
2024-01-05T22:04:34.930Z,74.73
2024-01-05T22:07:02.365Z,75.09
2024-01-05T22:09:29.688Z,75.35
2024-01-05T22:11:56.830Z,75.40
2024-01-05T22:14:23.768Z,75.91
2024-01-05T22:16:53.929Z,76.04
2024-01-05T22:19:21.944Z,76.05
2024-01-05T22:21:49.159Z,76.28
2024-01-05T22:24:16.300Z,77.18
2024-01-05T22:26:43.336Z,78.60
2024-01-05T22:29:10.414Z,79.27
2024-01-05T22:31:37.659Z,79.52
2024-01-05T22:34:04.807Z,79.71
2024-01-05T22:36:31.821Z,79.73
2024-01-05T22:38:58.867Z,79.69
2024-01-05T22:41:25.940Z,79.52
2024-01-05T22:43:53.723Z,79.40
2024-01-05T22:46:22.765Z,79.40
2024-01-05T22:48:50.581Z,79.77
2024-01-05T22:51:22.340Z,79.27
2024-01-05T22:53:49.803Z,78.69
2024-01-05T22:56:16.855Z,78.62
2024-01-05T22:58:43.910Z,78.34
2024-01-05T23:01:26.401Z,77.96
2024-01-05T23:03:53.645Z,78.11
2024-01-05T23:06:21.367Z,77.40
2024-01-05T23:08:48.360Z,77.04
2024-01-05T23:11:15.347Z,76.89
2024-01-05T23:13:42.296Z,76.88
2024-01-05T23:16:09.616Z,76.72
2024-01-05T23:18:37.100Z,76.95
2024-01-05T23:21:05.243Z,77.24
2024-01-05T23:23:32.288Z,77.14
2024-01-05T23:25:59.415Z,77.31
2024-01-05T23:28:26.503Z,77.49
2024-01-05T23:30:54.208Z,78.24
2024-01-05T23:33:21.655Z,78.95
2024-01-05T23:35:48.878Z,79.08
2024-01-05T23:38:15.979Z,79.63
2024-01-05T23:40:42.927Z,79.80
2024-01-05T23:43:09.875Z,80.30
2024-01-05T23:45:36.998Z,80.43
2024-01-05T23:48:04.312Z,80.28
2024-01-05T23:50:31.513Z,79.96
2024-01-05T23:52:59.077Z,80.12
2024-01-05T23:55:26.823Z,80.25
2024-01-05T23:57:54.113Z,80.16
